createdAt,value
2019-01-19T00:01:28.657Z,-3.10
2019-01-19T00:04:36.737Z,-3.01
2019-01-19T00:07:43.808Z,-2.86
2019-01-19T00:10:58.899Z,-2.87
2019-01-19T00:14:11.320Z,-2.91
2019-01-19T00:17:33.167Z,-2.96
2019-01-19T00:20:38.883Z,-2.84
2019-01-19T00:23:46.059Z,-2.87
2019-01-19T00:26:39.025Z,-2.94
2019-01-19T00:29:32.408Z,-3.00
2019-01-19T00:32:51.578Z,-3.05
2019-01-19T00:36:08.889Z,-3.13
2019-01-19T00:39:02.468Z,-3.20
2019-01-19T00:42:26.745Z,-3.24
2019-01-19T00:45:42.015Z,-3.32
2019-01-19T00:48:41.013Z,-3.38
2019-01-19T00:51:48.419Z,-3.39
2019-01-19T00:54:32.264Z,-3.40
2019-01-19T00:57:47.526Z,-3.38
2019-01-19T01:00:32.620Z,-3.43
2019-01-19T01:03:19.513Z,-3.42
2019-01-19T01:06:34.855Z,-3.45
2019-01-19T01:09:40.873Z,-3.49
2019-01-19T01:12:36.993Z,-3.55
2019-01-19T01:15:36.912Z,-3.60
2019-01-19T01:18:36.731Z,-3.63
2019-01-19T01:21:30.865Z,-3.65
2019-01-19T01:24:40.508Z,-3.68
2019-01-19T01:27:22.119Z,-3.70
2019-01-19T01:30:33.612Z,-3.95
2019-01-19T01:33:45.641Z,-3.80
2019-01-19T01:37:09.322Z,-3.84
2019-01-19T01:40:33.852Z,-3.88
2019-01-19T01:43:53.707Z,-3.91
2019-01-19T01:47:17.157Z,-3.94
2019-01-19T01:50:16.782Z,-3.98
2019-01-19T01:53:44.045Z,-4.00
2019-01-19T01:56:16.186Z,-4.01
2019-01-19T01:59:18.209Z,-4.05
2019-01-19T02:02:39.887Z,-4.08
2019-01-19T02:05:43.507Z,-4.06
2019-01-19T02:08:59.008Z,-4.04
2019-01-19T02:11:55.246Z,-4.02
2019-01-19T02:15:10.271Z,-3.97
2019-01-19T02:18:08.385Z,-4.00
2019-01-19T02:20:55.592Z,-3.98
2019-01-19T02:23:48.138Z,-3.95
2019-01-19T02:26:45.428Z,-3.95
2019-01-19T02:29:56.839Z,-3.92
2019-01-19T02:33:23.734Z,-3.98
2019-01-19T02:36:35.549Z,-3.88
2019-01-19T02:39:29.097Z,-3.84
2019-01-19T02:42:43.379Z,-3.78
2019-01-19T02:45:56.856Z,-3.79
2019-01-19T02:49:24.406Z,-3.79
2019-01-19T02:52:33.474Z,-3.85
2019-01-19T02:56:00.963Z,-3.91
2019-01-19T02:59:00.228Z,-3.89
2019-01-19T03:01:44.087Z,-3.90
2019-01-19T03:04:56.285Z,-3.90
2019-01-19T03:08:10.225Z,-3.93
2019-01-19T03:11:21.518Z,-3.96
2019-01-19T03:14:16.014Z,-3.96
2019-01-19T03:17:21.029Z,-3.96
2019-01-19T03:20:42.386Z,-3.97
2019-01-19T03:24:06.885Z,-3.98
2019-01-19T03:27:03.299Z,-3.98
2019-01-19T03:30:33.988Z,-3.97
2019-01-19T03:33:42.082Z,-3.90
2019-01-19T03:36:42.823Z,-3.90
2019-01-19T03:39:52.140Z,-3.85
2019-01-19T03:43:09.352Z,-3.90
2019-01-19T03:46:21.350Z,-3.90
2019-01-19T03:49:18.002Z,-3.93
2019-01-19T03:52:24.677Z,-3.92
2019-01-19T03:55:13.023Z,-3.91
2019-01-19T03:58:24.638Z,-3.89
2019-01-19T04:01:08.768Z,-3.84
2019-01-19T04:04:06.732Z,-3.83
2019-01-19T04:07:02.774Z,-3.79
2019-01-19T04:09:59.812Z,-3.74
2019-01-19T04:13:11.045Z,-3.73
2019-01-19T04:16:33.252Z,-3.66
2019-01-19T04:19:50.363Z,-3.63
2019-01-19T04:22:32.974Z,-3.55
2019-01-19T04:25:34.630Z,-3.52
2019-01-19T04:28:07.761Z,-3.56
2019-01-19T04:30:39.073Z,-3.49
2019-01-19T04:33:10.956Z,-3.51
2019-01-19T04:35:42.218Z,-3.50
2019-01-19T04:38:13.489Z,-3.49
2019-01-19T04:40:44.766Z,-3.50
2019-01-19T04:43:16.116Z,-3.47
2019-01-19T04:45:47.429Z,-3.43
2019-01-19T04:48:20.357Z,-3.36
2019-01-19T04:50:52.369Z,-3.40
2019-01-19T04:53:23.656Z,-3.41
2019-01-19T04:55:55.115Z,-3.45
2019-01-19T04:58:26.589Z,-3.43
2019-01-19T05:00:57.940Z,-3.36
2019-01-19T05:03:29.276Z,-3.30
2019-01-19T05:06:00.607Z,-3.27
2019-01-19T05:08:31.858Z,-3.27
2019-01-19T05:11:03.342Z,-3.25
2019-01-19T05:13:34.631Z,-3.19
2019-01-19T05:16:06.739Z,-3.20
2019-01-19T05:18:37.991Z,-3.13
2019-01-19T05:21:09.410Z,-3.12
2019-01-19T05:23:40.840Z,-3.17
2019-01-19T05:26:12.194Z,-3.17
2019-01-19T05:28:43.490Z,-3.16
2019-01-19T05:31:14.799Z,-3.11
2019-01-19T05:33:46.077Z,-3.06
2019-01-19T05:36:17.487Z,-3.06
2019-01-19T05:38:48.760Z,-3.03
2019-01-19T05:41:20.111Z,-3.03
2019-01-19T05:43:51.518Z,-3.03
2019-01-19T05:46:22.807Z,-3.03
2019-01-19T05:48:54.163Z,-3.02
2019-01-19T05:51:25.521Z,-3.03
2019-01-19T05:53:56.760Z,-2.99
2019-01-19T05:56:28.142Z,-2.96
2019-01-19T05:58:59.513Z,-3.00
2019-01-19T06:01:30.842Z,-3.02
2019-01-19T06:04:02.114Z,-2.97
2019-01-19T06:06:33.414Z,-3.03
2019-01-19T06:09:07.756Z,-2.96
2019-01-19T06:11:38.999Z,-3.00
2019-01-19T06:14:10.246Z,-3.06
2019-01-19T06:16:44.076Z,-3.04
2019-01-19T06:19:15.744Z,-3.00
2019-01-19T06:21:54.745Z,-2.90
2019-01-19T06:24:26.011Z,-2.92
2019-01-19T06:26:57.333Z,-2.90
2019-01-19T06:29:28.573Z,-2.87
2019-01-19T06:31:59.916Z,-2.87
2019-01-19T06:34:31.240Z,-2.91
2019-01-19T06:37:04.337Z,-2.88
2019-01-19T06:39:35.853Z,-2.95
2019-01-19T06:42:07.146Z,-2.99
2019-01-19T06:44:38.567Z,-3.00
2019-01-19T06:47:10.119Z,-2.99
2019-01-19T06:49:41.470Z,-2.99
2019-01-19T06:52:12.731Z,-3.00
2019-01-19T06:54:44.069Z,-3.01
2019-01-19T06:57:15.436Z,-2.98
2019-01-19T06:59:46.761Z,-2.97
2019-01-19T07:02:18.267Z,-3.02
2019-01-19T07:04:49.705Z,-3.01
2019-01-19T07:07:21.024Z,-3.01
2019-01-19T07:09:52.371Z,-3.00
2019-01-19T07:12:23.739Z,-3.03
2019-01-19T07:14:55.137Z,-3.05
2019-01-19T07:17:26.626Z,-3.00
2019-01-19T07:19:57.896Z,-3.04
2019-01-19T07:22:29.185Z,-3.07
2019-01-19T07:25:00.877Z,-3.10
2019-01-19T07:27:32.241Z,-3.05
2019-01-19T07:30:04.982Z,-3.06
2019-01-19T07:32:36.256Z,-3.01
2019-01-19T07:35:08.661Z,-3.06
2019-01-19T07:37:39.990Z,-3.04
2019-01-19T07:40:13.299Z,-3.04
2019-01-19T07:42:45.092Z,-3.02
2019-01-19T07:45:16.981Z,-3.03
2019-01-19T07:47:48.338Z,-2.97
2019-01-19T07:50:19.698Z,-2.99
2019-01-19T07:52:51.101Z,-2.88
2019-01-19T07:55:22.352Z,-2.92
2019-01-19T07:57:53.640Z,-2.90
2019-01-19T08:00:27.603Z,-2.87
2019-01-19T08:02:58.931Z,-2.82
2019-01-19T08:05:31.847Z,-2.84
2019-01-19T08:08:03.218Z,-2.78
2019-01-19T08:10:34.638Z,-2.71
2019-01-19T08:13:05.930Z,-2.67
2019-01-19T08:15:37.168Z,-2.62
2019-01-19T08:18:08.723Z,-2.53
2019-01-19T08:20:40.007Z,-2.49
2019-01-19T08:23:11.913Z,-2.43
2019-01-19T08:25:43.326Z,-2.37
2019-01-19T08:28:14.675Z,-2.33
2019-01-19T08:30:46.024Z,-2.26
2019-01-19T08:33:17.334Z,-2.20
2019-01-19T08:35:48.739Z,-2.24
2019-01-19T08:38:20.387Z,-2.21
2019-01-19T08:40:51.761Z,-2.22
2019-01-19T08:43:30.016Z,-2.18
2019-01-19T08:46:02.317Z,-2.16
2019-01-19T08:48:33.692Z,-2.18
2019-01-19T08:51:05.244Z,-2.02
2019-01-19T08:53:38.403Z,-2.05
2019-01-19T08:56:09.650Z,-2.05
2019-01-19T08:58:41.135Z,-2.09
2019-01-19T09:01:12.409Z,-2.07
2019-01-19T09:03:43.830Z,-2.07
2019-01-19T09:06:15.127Z,-2.03
2019-01-19T09:08:46.390Z,-1.98
2019-01-19T09:11:17.725Z,-1.80
2019-01-19T09:13:49.105Z,-1.77
2019-01-19T09:16:22.292Z,-1.69
2019-01-19T09:18:53.615Z,-1.56
2019-01-19T09:21:24.941Z,-1.43
2019-01-19T09:24:00.612Z,-1.35
2019-01-19T09:26:31.851Z,-1.28
2019-01-19T09:29:03.206Z,-1.28
2019-01-19T09:31:34.564Z,-1.17
2019-01-19T09:34:06.231Z,-1.09
2019-01-19T09:36:37.494Z,-1.11
2019-01-19T09:39:12.483Z,-1.08
2019-01-19T09:41:43.756Z,-1.05
2019-01-19T09:44:15.064Z,-0.89
2019-01-19T09:46:46.624Z,-0.75
2019-01-19T09:49:18.059Z,-0.78
2019-01-19T09:51:49.360Z,-0.77
2019-01-19T09:54:22.296Z,-0.91
2019-01-19T09:56:53.560Z,-1.10
2019-01-19T09:59:24.909Z,-0.94
2019-01-19T10:01:56.298Z,-0.79
2019-01-19T10:04:29.242Z,-0.68
2019-01-19T10:07:00.504Z,-0.68
2019-01-19T10:09:31.811Z,-0.47
2019-01-19T10:12:03.258Z,-0.41
2019-01-19T10:14:34.613Z,-0.40
2019-01-19T10:17:06.062Z,-0.54
2019-01-19T10:19:37.403Z,-0.50
2019-01-19T10:22:08.708Z,-0.42
2019-01-19T10:24:39.974Z,-0.56
2019-01-19T10:27:11.289Z,-0.65
2019-01-19T10:29:42.696Z,-1.04
2019-01-19T10:32:13.955Z,-0.45
2019-01-19T10:34:45.235Z,-0.46
2019-01-19T10:37:17.498Z,-0.34
2019-01-19T10:39:48.794Z,-0.36
2019-01-19T10:42:20.298Z,-0.23
2019-01-19T10:44:51.692Z,-0.17
2019-01-19T10:47:22.932Z,-0.14
2019-01-19T10:49:54.262Z,-0.25
2019-01-19T10:52:25.685Z,-0.13
2019-01-19T10:54:56.959Z,-0.04
2019-01-19T10:57:28.352Z,-0.04
2019-01-19T10:59:59.658Z,-0.07
2019-01-19T11:02:30.917Z,0.05
2019-01-19T11:05:02.452Z,0.06
2019-01-19T11:07:33.876Z,0.12
2019-01-19T11:10:06.417Z,0.06
2019-01-19T11:12:39.586Z,0.00
2019-01-19T11:15:13.871Z,-0.02
2019-01-19T11:17:46.650Z,-0.03
2019-01-19T11:20:19.990Z,0.21
2019-01-19T11:22:51.452Z,0.21
2019-01-19T11:25:25.630Z,0.17
2019-01-19T11:27:58.394Z,0.22
2019-01-19T11:30:31.633Z,-0.03
2019-01-19T11:33:05.809Z,0.15
2019-01-19T11:35:37.519Z,0.38
2019-01-19T11:38:12.008Z,0.37
2019-01-19T11:40:43.479Z,0.31
2019-01-19T11:43:19.180Z,0.34
2019-01-19T11:45:51.567Z,0.44
2019-01-19T11:48:25.478Z,0.28
2019-01-19T11:50:59.365Z,0.22
2019-01-19T11:53:33.506Z,0.16
2019-01-19T11:56:12.174Z,0.29
2019-01-19T11:58:41.502Z,0.15
2019-01-19T12:01:15.553Z,0.29
2019-01-19T12:03:46.806Z,0.32
2019-01-19T12:06:20.411Z,0.32
2019-01-19T12:08:51.674Z,0.41
2019-01-19T12:11:25.892Z,0.37
2019-01-19T12:14:00.532Z,0.39
2019-01-19T12:16:32.827Z,0.38
2019-01-19T12:19:05.654Z,0.32
2019-01-19T12:21:37.816Z,0.27
2019-01-19T12:24:13.334Z,0.32
2019-01-19T12:26:45.815Z,0.39
2019-01-19T12:29:21.422Z,0.37
2019-01-19T12:31:53.719Z,0.30
2019-01-19T12:34:29.388Z,0.27
2019-01-19T12:37:02.281Z,0.32
2019-01-19T12:39:33.984Z,0.46
2019-01-19T12:42:07.727Z,0.37
2019-01-19T12:44:41.809Z,0.41
2019-01-19T12:47:14.728Z,0.56
2019-01-19T12:49:46.946Z,0.62
2019-01-19T12:52:22.487Z,0.63
2019-01-19T12:54:53.880Z,0.63
2019-01-19T12:57:25.521Z,0.45
2019-01-19T12:59:59.288Z,0.53
2019-01-19T13:02:31.760Z,0.50
2019-01-19T13:05:09.360Z,0.35
2019-01-19T13:07:40.971Z,0.36
2019-01-19T13:10:23.077Z,0.29
2019-01-19T13:13:14.057Z,0.29
2019-01-19T13:16:17.152Z,0.25
2019-01-19T13:19:12.497Z,0.29
2019-01-19T13:22:24.780Z,0.18
2019-01-19T13:25:18.696Z,0.25
2019-01-19T13:28:37.813Z,0.23
2019-01-19T13:31:46.731Z,0.27
2019-01-19T13:34:48.549Z,0.22
2019-01-19T13:37:49.390Z,0.20
2019-01-19T13:41:06.969Z,0.17
2019-01-19T13:44:33.260Z,0.19
2019-01-19T13:47:40.339Z,0.16
2019-01-19T13:50:57.409Z,0.11
2019-01-19T13:54:11.321Z,0.06
2019-01-19T13:57:14.504Z,-0.04
2019-01-19T14:00:33.491Z,-0.04
2019-01-19T14:03:48.343Z,-0.02
2019-01-19T14:07:09.791Z,-0.09
2019-01-19T14:10:24.841Z,-0.09
2019-01-19T14:13:30.694Z,-0.16
2019-01-19T14:16:18.748Z,-0.25
2019-01-19T14:19:47.470Z,-0.25
2019-01-19T14:23:08.112Z,-0.32
2019-01-19T14:26:23.813Z,-0.39
2019-01-19T14:29:31.105Z,-0.37
2019-01-19T14:32:46.591Z,-0.35
2019-01-19T14:36:06.276Z,-0.36
2019-01-19T14:39:25.802Z,-0.44
2019-01-19T14:42:56.959Z,-0.44
2019-01-19T14:46:00.964Z,-0.45
2019-01-19T14:49:08.639Z,-0.54
2019-01-19T14:52:35.999Z,-0.54
2019-01-19T14:55:45.137Z,-0.51
2019-01-19T14:58:52.544Z,-0.58
2019-01-19T15:02:06.899Z,-0.63
2019-01-19T15:05:04.158Z,-0.63
2019-01-19T15:08:19.913Z,-0.68
2019-01-19T15:11:32.640Z,-0.72
2019-01-19T15:14:33.873Z,-0.73
2019-01-19T15:17:35.836Z,-0.79
2019-01-19T15:20:37.605Z,-0.79
2019-01-19T15:23:37.874Z,-0.85
2019-01-19T15:26:51.717Z,-0.91
2019-01-19T15:29:54.664Z,-0.92
2019-01-19T15:32:52.123Z,-0.93
2019-01-19T15:35:55.820Z,-0.97
2019-01-19T15:38:40.945Z,-0.97
2019-01-19T15:41:53.341Z,-0.99
2019-01-19T15:45:01.967Z,-1.03
2019-01-19T15:48:12.833Z,-1.04
2019-01-19T15:51:35.791Z,-1.11
2019-01-19T15:54:37.779Z,-1.14
2019-01-19T15:58:05.264Z,-1.15
2019-01-19T16:01:14.348Z,-1.14
2019-01-19T16:04:32.557Z,-1.10
2019-01-19T16:07:30.137Z,-1.25
2019-01-19T16:10:29.271Z,-1.29
2019-01-19T16:13:35.839Z,-1.31
2019-01-19T16:16:53.489Z,-1.32
2019-01-19T16:19:55.390Z,-1.41
2019-01-19T16:22:48.506Z,-1.38
2019-01-19T16:25:55.161Z,-1.44
2019-01-19T16:29:09.952Z,-1.43
2019-01-19T16:32:08.085Z,-1.46
2019-01-19T16:35:17.053Z,-1.50
2019-01-19T16:38:27.407Z,-1.49
2019-01-19T16:41:45.867Z,-1.48
2019-01-19T16:45:09.922Z,-1.55
2019-01-19T16:48:22.051Z,-1.51
2019-01-19T16:51:32.705Z,-1.57
2019-01-19T16:54:47.796Z,-1.58
2019-01-19T16:57:49.618Z,-1.59
2019-01-19T17:01:04.426Z,-1.63
2019-01-19T17:04:30.232Z,-1.65
2019-01-19T17:07:11.066Z,-1.68
2019-01-19T17:10:05.116Z,-1.66
2019-01-19T17:13:18.281Z,-1.69
2019-01-19T17:16:18.664Z,-1.66
2019-01-19T17:19:15.196Z,-1.71
2019-01-19T17:22:26.522Z,-1.67
2019-01-19T17:25:41.365Z,-1.68
2019-01-19T17:28:46.674Z,-1.71
2019-01-19T17:31:46.295Z,-1.73
2019-01-19T17:34:49.491Z,-1.74
2019-01-19T17:37:38.356Z,-1.70
2019-01-19T17:40:43.477Z,-1.78
2019-01-19T17:43:36.886Z,-1.81
2019-01-19T17:47:01.976Z,-1.77
2019-01-19T17:49:46.965Z,-1.79
2019-01-19T17:52:47.573Z,-1.81
2019-01-19T17:55:57.345Z,-1.81
2019-01-19T17:58:56.038Z,-1.78
2019-01-19T18:02:30.009Z,-1.84
2019-01-19T18:05:56.889Z,-1.89
2019-01-19T18:08:58.346Z,-1.80
2019-01-19T18:11:50.194Z,-1.89
2019-01-19T18:14:30.630Z,-1.95
2019-01-19T18:17:52.914Z,-1.96
2019-01-19T18:21:15.192Z,-1.89
2019-01-19T18:24:26.714Z,-1.92
2019-01-19T18:27:48.081Z,-1.95
2019-01-19T18:30:50.061Z,-2.03
2019-01-19T18:34:10.731Z,-2.05
2019-01-19T18:37:09.906Z,-2.05
2019-01-19T18:40:17.331Z,-2.10
2019-01-19T18:42:58.801Z,-2.11
2019-01-19T18:46:08.125Z,-2.16
2019-01-19T18:49:25.735Z,-2.19
2019-01-19T18:52:40.596Z,-2.20
2019-01-19T18:55:34.783Z,-2.25
2019-01-19T18:58:45.671Z,-2.26
2019-01-19T19:01:49.925Z,-2.25
2019-01-19T19:04:59.704Z,-2.27
2019-01-19T19:08:16.990Z,-2.25
2019-01-19T19:11:33.241Z,-2.31
2019-01-19T19:14:33.115Z,-2.39
2019-01-19T19:17:36.336Z,-2.40
2019-01-19T19:20:19.638Z,-2.42
2019-01-19T19:23:24.292Z,-2.41
2019-01-19T19:26:57.978Z,-2.39
2019-01-19T19:30:11.535Z,-2.39
2019-01-19T19:33:19.449Z,-2.44
2019-01-19T19:36:34.889Z,-2.42
2019-01-19T19:39:33.729Z,-2.40
2019-01-19T19:42:45.526Z,-2.39
2019-01-19T19:45:43.395Z,-2.41
2019-01-19T19:48:54.931Z,-2.41
2019-01-19T19:52:00.375Z,-2.42
2019-01-19T19:54:34.945Z,-2.41
2019-01-19T19:57:07.069Z,-2.41
2019-01-19T19:59:38.834Z,-2.33
2019-01-19T20:02:12.921Z,-2.37
2019-01-19T20:04:44.300Z,-2.38
2019-01-19T20:07:17.793Z,-2.42
2019-01-19T20:09:51.890Z,-2.42
2019-01-19T20:12:25.895Z,-2.44
2019-01-19T20:15:00.246Z,-2.46
2019-01-19T20:17:33.876Z,-2.49
2019-01-19T20:20:06.690Z,-2.51
2019-01-19T20:22:38.687Z,-2.52
2019-01-19T20:25:10.946Z,-2.49
2019-01-19T20:27:43.816Z,-2.52
2019-01-19T20:30:18.260Z,-2.52
2019-01-19T20:32:50.720Z,-2.53
2019-01-19T20:35:22.794Z,-2.55
2019-01-19T20:37:56.155Z,-2.55
2019-01-19T20:40:27.513Z,-2.55
2019-01-19T20:42:58.788Z,-2.57
2019-01-19T20:45:30.139Z,-2.57
2019-01-19T20:48:03.830Z,-2.57
2019-01-19T20:50:37.082Z,-2.57
2019-01-19T20:53:11.104Z,-2.57
2019-01-19T20:55:45.381Z,-2.59
2019-01-19T20:58:19.011Z,-2.59
2019-01-19T21:00:53.237Z,-2.58
2019-01-19T21:03:27.054Z,-2.58
2019-01-19T21:06:00.155Z,-2.53
2019-01-19T21:08:35.795Z,-2.52
2019-01-19T21:11:08.659Z,-2.54
2019-01-19T21:13:39.934Z,-2.55
2019-01-19T21:16:13.963Z,-2.47
2019-01-19T21:18:47.038Z,-2.56
2019-01-19T21:21:19.125Z,-2.64
2019-01-19T21:23:52.094Z,-2.66
2019-01-19T21:26:25.999Z,-2.63
2019-01-19T21:28:58.162Z,-2.61
2019-01-19T21:31:31.155Z,-2.62
2019-01-19T21:34:03.278Z,-2.64
2019-01-19T21:36:37.849Z,-2.63
2019-01-19T21:39:10.257Z,-2.68
2019-01-19T21:41:45.885Z,-2.68
2019-01-19T21:44:18.114Z,-2.68
2019-01-19T21:46:53.757Z,-2.73
2019-01-19T21:49:26.148Z,-2.76
2019-01-19T21:52:00.123Z,-2.77
2019-01-19T21:54:33.173Z,-2.78
2019-01-19T21:57:06.291Z,-2.78
2019-01-19T21:59:39.140Z,-2.77
2019-01-19T22:02:12.302Z,-2.81
2019-01-19T22:04:44.153Z,-2.81
2019-01-19T22:07:15.412Z,-2.80
2019-01-19T22:09:49.219Z,-2.83
2019-01-19T22:12:23.344Z,-2.81
2019-01-19T22:14:56.313Z,-2.80
2019-01-19T22:17:30.210Z,-2.82
2019-01-19T22:20:03.315Z,-2.81
2019-01-19T22:22:35.304Z,-2.82
2019-01-19T22:25:06.946Z,-2.85
2019-01-19T22:27:43.246Z,-2.86
2019-01-19T22:30:16.697Z,-2.88
2019-01-19T22:32:49.451Z,-2.88
2019-01-19T22:35:26.109Z,-2.86
2019-01-19T22:37:59.645Z,-2.88
2019-01-19T22:40:34.360Z,-2.89
2019-01-19T22:43:09.115Z,-2.90
2019-01-19T22:45:41.456Z,-2.92
2019-01-19T22:48:15.483Z,-2.94
2019-01-19T22:50:46.834Z,-2.94
2019-01-19T22:53:20.444Z,-2.98
2019-01-19T22:55:54.345Z,-2.96
2019-01-19T22:58:28.505Z,-2.95
2019-01-19T23:02:02.526Z,-2.94
2019-01-19T23:04:37.980Z,-2.93
2019-01-19T23:07:12.578Z,-2.90
2019-01-19T23:09:44.509Z,-3.01
2019-01-19T23:12:16.583Z,-2.85
2019-01-19T23:14:49.948Z,-2.86
2019-01-19T23:17:23.567Z,-2.83
2019-01-19T23:19:57.578Z,-2.82
2019-01-19T23:22:29.005Z,-2.82
2019-01-19T23:25:00.869Z,-2.83
2019-01-19T23:27:33.585Z,-2.86
2019-01-19T23:30:08.029Z,-2.87
2019-01-19T23:32:41.649Z,-2.85
2019-01-19T23:35:15.540Z,-2.86
2019-01-19T23:37:50.505Z,-2.83
2019-01-19T23:40:23.718Z,-2.84
2019-01-19T23:42:57.657Z,-2.83
2019-01-19T23:45:33.177Z,-2.83
2019-01-19T23:48:06.588Z,-2.83
2019-01-19T23:50:39.502Z,-2.80
2019-01-19T23:53:10.759Z,-2.79
2019-01-19T23:55:44.764Z,-2.78
2019-01-19T23:58:18.862Z,-2.80
